sensor_id;sensor_type;location;lat;lon;timestamp;pressure;altitude;pressure_sealevel;temperature;humidity
29417;BME280;28421;51.030;4.006;2022-12-07T06:03:44;101902.41;;;5.98;73.20
29417;BME280;28421;51.030;4.006;2022-12-07T06:06:10;101907.25;;;5.93;72.83
29417;BME280;28421;51.030;4.006;2022-12-07T06:08:36;101898.47;;;5.91;72.80
29417;BME280;28421;51.030;4.006;2022-12-07T06:11:01;101892.00;;;5.83;72.20
29417;BME280;28421;51.030;4.006;2022-12-07T06:13:45;101901.22;;;5.79;72.26
29417;BME280;28421;51.030;4.006;2022-12-07T06:16:11;101911.31;;;5.02;75.26
29417;BME280;28421;51.030;4.006;2022-12-07T06:18:36;101895.53;;;5.11;75.00
29417;BME280;28421;51.030;4.006;2022-12-07T06:21:01;101904.50;;;5.10;74.97
29417;BME280;28421;51.030;4.006;2022-12-07T06:23:27;101918.50;;;5.25;74.96
29417;BME280;28421;51.030;4.006;2022-12-07T06:25:52;101913.69;;;4.81;76.38
29417;BME280;28421;51.030;4.006;2022-12-07T06:28:17;101919.66;;;4.84;76.94
29417;BME280;28421;51.030;4.006;2022-12-07T06:30:43;101908.56;;;5.03;77.11
29417;BME280;28421;51.030;4.006;2022-12-07T06:33:08;101904.44;;;5.47;75.66
29417;BME280;28421;51.030;4.006;2022-12-07T06:35:34;101908.00;;;5.11;76.57
29417;BME280;28421;51.030;4.006;2022-12-07T06:37:59;101918.56;;;5.12;76.73
29417;BME280;28421;51.030;4.006;2022-12-07T06:40:24;101930.44;;;4.83;78.07
29417;BME280;28421;51.030;4.006;2022-12-07T06:42:50;101932.22;;;5.08;77.68
29417;BME280;28421;51.030;4.006;2022-12-07T06:45:15;101935.44;;;5.37;76.98
29417;BME280;28421;51.030;4.006;2022-12-07T06:47:41;101932.69;;;5.62;75.90
29417;BME280;28421;51.030;4.006;2022-12-07T06:50:06;101935.69;;;5.58;75.64
29417;BME280;28421;51.030;4.006;2022-12-07T06:52:33;101935.06;;;5.54;75.58
29417;BME280;28421;51.030;4.006;2022-12-07T06:54:58;101939.63;;;5.28;76.86
29417;BME280;28421;51.030;4.006;2022-12-07T06:57:25;101943.94;;;5.42;76.21
29417;BME280;28421;51.030;4.006;2022-12-07T06:59:50;101941.44;;;5.28;76.92
29417;BME280;28421;51.030;4.006;2022-12-07T07:02:15;101919.84;;;5.07;77.09
29417;BME280;28421;51.030;4.006;2022-12-07T07:04:41;101949.16;;;5.19;77.50
29417;BME280;28421;51.030;4.006;2022-12-07T07:07:07;101942.34;;;5.15;77.70
29417;BME280;28421;51.030;4.006;2022-12-07T07:09:32;101919.94;;;5.42;77.40
29417;BME280;28421;51.030;4.006;2022-12-07T07:11:58;101917.72;;;5.72;76.11
29417;BME280;28421;51.030;4.006;2022-12-07T07:14:23;101923.47;;;5.18;76.84
29417;BME280;28421;51.030;4.006;2022-12-07T07:16:48;101932.88;;;4.98;79.02
29417;BME280;28421;51.030;4.006;2022-12-07T07:19:14;101932.84;;;5.11;78.38
29417;BME280;28421;51.030;4.006;2022-12-07T07:21:39;101924.94;;;5.22;78.39
29417;BME280;28421;51.030;4.006;2022-12-07T07:24:05;101934.88;;;5.08;77.94
29417;BME280;28421;51.030;4.006;2022-12-07T07:26:30;101925.41;;;4.91;78.46
29417;BME280;28421;51.030;4.006;2022-12-07T07:28:56;101927.75;;;5.45;77.75
29417;BME280;28421;51.030;4.006;2022-12-07T07:31:21;101910.69;;;5.11;78.12
29417;BME280;28421;51.030;4.006;2022-12-07T07:33:47;101931.88;;;5.12;78.63
29417;BME280;28421;51.030;4.006;2022-12-07T07:36:12;101928.91;;;5.41;77.37
29417;BME280;28421;51.030;4.006;2022-12-07T07:38:38;101918.69;;;5.35;76.86
29417;BME280;28421;51.030;4.006;2022-12-07T07:41:03;101933.00;;;5.34;77.28
29417;BME280;28421;51.030;4.006;2022-12-07T07:43:29;101929.97;;;5.38;76.81
29417;BME280;28421;51.030;4.006;2022-12-07T07:45:54;101921.88;;;5.64;76.05
29417;BME280;28421;51.030;4.006;2022-12-07T07:48:19;101934.84;;;5.57;75.80
29417;BME280;28421;51.030;4.006;2022-12-07T07:50:45;101936.41;;;5.36;77.05
29417;BME280;28421;51.030;4.006;2022-12-07T07:53:10;101928.66;;;5.20;77.56
29417;BME280;28421;51.030;4.006;2022-12-07T07:55:36;101922.78;;;5.28;76.64
29417;BME280;28421;51.030;4.006;2022-12-07T07:58:01;101940.84;;;5.48;76.84
29417;BME280;28421;51.030;4.006;2022-12-07T08:00:27;101914.84;;;5.39;76.29
29417;BME280;28421;51.030;4.006;2022-12-07T08:02:52;101911.34;;;5.62;75.81
29417;BME280;28421;51.030;4.006;2022-12-07T08:05:18;101919.19;;;5.53;75.52
29417;BME280;28421;51.030;4.006;2022-12-07T08:07:43;101923.34;;;5.68;75.07
29417;BME280;28421;51.030;4.006;2022-12-07T08:10:10;101896.91;;;5.65;74.39
29417;BME280;28421;51.030;4.006;2022-12-07T08:12:38;101928.13;;;5.76;74.36
29417;BME280;28421;51.030;4.006;2022-12-07T08:15:24;101925.34;;;5.53;74.83
29417;BME280;28421;51.030;4.006;2022-12-07T08:17:50;101926.81;;;5.33;75.66
29417;BME280;28421;51.030;4.006;2022-12-07T08:20:15;101917.38;;;5.16;75.44
29417;BME280;28421;51.030;4.006;2022-12-07T08:22:41;101932.19;;;5.20;76.39
29417;BME280;28421;51.030;4.006;2022-12-07T08:25:06;101934.88;;;5.44;75.27
29417;BME280;28421;51.030;4.006;2022-12-07T08:27:32;101939.84;;;5.25;76.36
29417;BME280;28421;51.030;4.006;2022-12-07T08:29:57;101936.47;;;5.23;76.85
29417;BME280;28421;51.030;4.006;2022-12-07T08:32:23;101957.88;;;5.21;76.94
29417;BME280;28421;51.030;4.006;2022-12-07T08:34:48;101957.66;;;5.24;77.54
29417;BME280;28421;51.030;4.006;2022-12-07T08:37:14;101957.59;;;5.74;76.13
29417;BME280;28421;51.030;4.006;2022-12-07T08:39:39;101965.13;;;5.80;75.76
29417;BME280;28421;51.030;4.006;2022-12-07T08:42:05;101953.75;;;5.78;75.81
29417;BME280;28421;51.030;4.006;2022-12-07T08:44:30;101961.56;;;5.44;76.44
29417;BME280;28421;51.030;4.006;2022-12-07T08:46:59;101943.75;;;5.69;76.37
29417;BME280;28421;51.030;4.006;2022-12-07T08:49:33;101965.31;;;5.66;76.48
29417;BME280;28421;51.030;4.006;2022-12-07T08:51:59;101957.09;;;5.69;76.25
29417;BME280;28421;51.030;4.006;2022-12-07T08:54:25;101948.53;;;6.01;76.26
29417;BME280;28421;51.030;4.006;2022-12-07T08:56:51;101953.97;;;6.23;75.80
29417;BME280;28421;51.030;4.006;2022-12-07T08:59:17;101939.94;;;6.08;76.00
29417;BME280;28421;51.030;4.006;2022-12-07T09:01:43;101947.91;;;6.32;75.39
29417;BME280;28421;51.030;4.006;2022-12-07T09:04:09;101953.25;;;6.32;75.14
29417;BME280;28421;51.030;4.006;2022-12-07T09:06:34;101950.72;;;6.31;74.99
29417;BME280;28421;51.030;4.006;2022-12-07T09:09:01;101955.06;;;6.32;74.68
29417;BME280;28421;51.030;4.006;2022-12-07T09:11:27;101959.50;;;5.85;76.59
29417;BME280;28421;51.030;4.006;2022-12-07T09:13:52;101963.69;;;6.00;76.30
29417;BME280;28421;51.030;4.006;2022-12-07T09:16:18;101954.44;;;6.28;75.62
29417;BME280;28421;51.030;4.006;2022-12-07T09:18:43;101952.00;;;6.25;75.93
29417;BME280;28421;51.030;4.006;2022-12-07T09:21:08;101958.84;;;6.40;75.82
29417;BME280;28421;51.030;4.006;2022-12-07T09:23:34;101957.19;;;6.62;75.00
29417;BME280;28421;51.030;4.006;2022-12-07T09:26:01;101963.13;;;6.54;75.34
29417;BME280;28421;51.030;4.006;2022-12-07T09:28:26;101949.66;;;6.56;74.51
29417;BME280;28421;51.030;4.006;2022-12-07T09:30:52;101961.22;;;6.56;75.15
29417;BME280;28421;51.030;4.006;2022-12-07T09:33:18;101962.78;;;6.47;75.36
29417;BME280;28421;51.030;4.006;2022-12-07T09:35:47;101973.13;;;6.75;75.36
29417;BME280;28421;51.030;4.006;2022-12-07T09:38:13;101966.34;;;7.04;73.95
29417;BME280;28421;51.030;4.006;2022-12-07T09:40:39;101949.56;;;7.02;73.83
29417;BME280;28421;51.030;4.006;2022-12-07T09:43:12;101951.50;;;7.22;73.68
29417;BME280;28421;51.030;4.006;2022-12-07T09:45:38;101949.19;;;6.95;73.97
29417;BME280;28421;51.030;4.006;2022-12-07T09:48:04;101954.84;;;6.46;75.15
29417;BME280;28421;51.030;4.006;2022-12-07T09:50:30;101926.22;;;6.48;74.78
29417;BME280;28421;51.030;4.006;2022-12-07T09:53:07;101950.06;;;6.73;75.20
29417;BME280;28421;51.030;4.006;2022-12-07T09:55:33;101942.63;;;6.66;75.56
29417;BME280;28421;51.030;4.006;2022-12-07T09:58:01;101910.44;;;6.67;74.78
29417;BME280;28421;51.030;4.006;2022-12-07T10:00:26;101930.25;;;6.87;74.92
29417;BME280;28421;51.030;4.006;2022-12-07T10:02:58;101943.47;;;7.00;74.38
29417;BME280;28421;51.030;4.006;2022-12-07T10:05:28;101948.44;;;6.71;75.39
29417;BME280;28421;51.030;4.006;2022-12-07T10:07:54;101942.88;;;7.08;74.97
29417;BME280;28421;51.030;4.006;2022-12-07T10:10:25;101911.25;;;7.13;74.91
29417;BME280;28421;51.030;4.006;2022-12-07T10:12:58;101940.66;;;7.46;74.72
29417;BME280;28421;51.030;4.006;2022-12-07T10:23:41;101922.88;;;7.45;74.37
29417;BME280;28421;51.030;4.006;2022-12-07T10:27:04;101931.34;;;7.62;74.14
29417;BME280;28421;51.030;4.006;2022-12-07T10:29:28;101938.28;;;7.64;73.66
29417;BME280;28421;51.030;4.006;2022-12-07T10:32:00;101923.94;;;7.54;74.42
29417;BME280;28421;51.030;4.006;2022-12-07T10:34:36;101928.81;;;7.60;74.08
29417;BME280;28421;51.030;4.006;2022-12-07T10:39:49;101918.03;;;7.51;74.27
29417;BME280;28421;51.030;4.006;2022-12-07T10:44:49;101912.78;;;7.38;74.59
29417;BME280;28421;51.030;4.006;2022-12-07T10:47:26;101916.44;;;7.48;74.93
29417;BME280;28421;51.030;4.006;2022-12-07T10:50:02;101908.66;;;7.77;74.15
29417;BME280;28421;51.030;4.006;2022-12-07T10:58:18;101890.00;;;7.87;72.62
29417;BME280;28421;51.030;4.006;2022-12-07T11:01:12;101891.13;;;7.52;73.19
29417;BME280;28421;51.030;4.006;2022-12-07T11:03:49;101886.03;;;7.81;72.79
29417;BME280;28421;51.030;4.006;2022-12-07T11:06:39;101884.19;;;8.23;72.78
29417;BME280;28421;51.030;4.006;2022-12-07T11:14:38;101879.09;;;8.00;71.33
29417;BME280;28421;51.030;4.006;2022-12-07T11:20:37;101873.63;;;8.22;72.13
29417;BME280;28421;51.030;4.006;2022-12-07T11:23:16;101868.09;;;7.61;72.33
29417;BME280;28421;51.030;4.006;2022-12-07T11:31:50;101858.41;;;7.81;71.98
29417;BME280;28421;51.030;4.006;2022-12-07T11:37:31;101857.38;;;7.93;72.03
29417;BME280;28421;51.030;4.006;2022-12-07T11:40:28;101851.72;;;8.17;71.89
29417;BME280;28421;51.030;4.006;2022-12-07T11:42:59;101848.47;;;7.71;72.91
29417;BME280;28421;51.030;4.006;2022-12-07T11:45:30;101840.69;;;8.10;72.16
29417;BME280;28421;51.030;4.006;2022-12-07T11:50:41;101829.56;;;8.36;71.45
29417;BME280;28421;51.030;4.006;2022-12-07T11:58:38;101844.69;;;8.37;71.17
29417;BME280;28421;51.030;4.006;2022-12-07T12:01:26;101836.78;;;7.93;71.95
29417;BME280;28421;51.030;4.006;2022-12-07T12:03:58;101839.00;;;8.09;71.82
29417;BME280;28421;51.030;4.006;2022-12-07T12:06:26;101838.81;;;8.01;71.92
29417;BME280;28421;51.030;4.006;2022-12-07T12:08:56;101829.09;;;8.52;70.94
29417;BME280;28421;51.030;4.006;2022-12-07T12:14:24;101816.53;;;8.52;70.14
29417;BME280;28421;51.030;4.006;2022-12-07T12:22:19;101807.28;;;8.35;69.92
29417;BME280;28421;51.030;4.006;2022-12-07T12:24:51;101805.47;;;8.15;70.59
29417;BME280;28421;51.030;4.006;2022-12-07T12:27:30;101804.75;;;8.74;69.67
29417;BME280;28421;51.030;4.006;2022-12-07T12:29:59;101797.19;;;8.89;68.94
29417;BME280;28421;51.030;4.006;2022-12-07T12:32:38;101801.81;;;8.37;69.45
29417;BME280;28421;51.030;4.006;2022-12-07T12:35:21;101795.34;;;8.80;68.87
29417;BME280;28421;51.030;4.006;2022-12-07T12:37:49;101785.59;;;8.38;68.77
29417;BME280;28421;51.030;4.006;2022-12-07T12:42:53;101785.72;;;8.37;68.64
29417;BME280;28421;51.030;4.006;2022-12-07T12:45:30;101766.78;;;8.59;68.31
29417;BME280;28421;51.030;4.006;2022-12-07T12:50:23;101779.44;;;8.57;67.84
29417;BME280;28421;51.030;4.006;2022-12-07T12:52:53;101780.00;;;8.51;68.00
29417;BME280;28421;51.030;4.006;2022-12-07T12:55:24;101778.44;;;8.49;67.87
29417;BME280;28421;51.030;4.006;2022-12-07T13:00:42;101776.28;;;8.83;67.24
29417;BME280;28421;51.030;4.006;2022-12-07T13:03:21;101774.69;;;8.30;68.10
29417;BME280;28421;51.030;4.006;2022-12-07T13:08:49;101774.25;;;8.56;67.81
29417;BME280;28421;51.030;4.006;2022-12-07T13:11:20;101776.44;;;8.20;69.35
29417;BME280;28421;51.030;4.006;2022-12-07T13:13:52;101771.41;;;8.57;68.29
29417;BME280;28421;51.030;4.006;2022-12-07T13:18:43;101759.84;;;8.26;69.32
29417;BME280;28421;51.030;4.006;2022-12-07T13:26:16;101778.09;;;7.81;72.01
29417;BME280;28421;51.030;4.006;2022-12-07T13:31:18;101771.81;;;7.70;71.03
29417;BME280;28421;51.030;4.006;2022-12-07T13:33:45;101775.41;;;7.60;71.77
29417;BME280;28421;51.030;4.006;2022-12-07T13:36:23;101770.31;;;7.57;72.16
29417;BME280;28421;51.030;4.006;2022-12-07T13:38:51;101742.25;;;7.51;72.05
29417;BME280;28421;51.030;4.006;2022-12-07T13:41:19;101743.88;;;7.84;71.56
29417;BME280;28421;51.030;4.006;2022-12-07T13:44:01;101753.84;;;7.61;71.56
29417;BME280;28421;51.030;4.006;2022-12-07T13:46:40;101750.34;;;7.61;72.01
29417;BME280;28421;51.030;4.006;2022-12-07T13:49:21;101754.44;;;7.86;71.81
29417;BME280;28421;51.030;4.006;2022-12-07T13:51:47;101749.03;;;8.07;71.07
29417;BME280;28421;51.030;4.006;2022-12-07T13:54:13;101727.91;;;7.83;71.68
29417;BME280;28421;51.030;4.006;2022-12-07T13:56:39;101727.28;;;8.00;71.55
29417;BME280;28421;51.030;4.006;2022-12-07T13:59:13;101728.19;;;8.10;71.65
29417;BME280;28421;51.030;4.006;2022-12-07T14:01:39;101717.44;;;8.31;71.07
29417;BME280;28421;51.030;4.006;2022-12-07T14:04:29;101723.28;;;8.15;71.28
29417;BME280;28421;51.030;4.006;2022-12-07T14:06:55;101727.47;;;8.08;71.06
29417;BME280;28421;51.030;4.006;2022-12-07T14:09:22;101734.16;;;8.23;70.56
29417;BME280;28421;51.030;4.006;2022-12-07T14:11:50;101729.38;;;8.17;70.15
29417;BME280;28421;51.030;4.006;2022-12-07T14:14:26;101732.88;;;7.87;71.13
29417;BME280;28421;51.030;4.006;2022-12-07T14:19:57;101719.91;;;7.62;72.08
29417;BME280;28421;51.030;4.006;2022-12-07T14:22:33;101723.19;;;7.96;71.59
29417;BME280;28421;51.030;4.006;2022-12-07T14:25:01;101717.69;;;8.28;71.26
29417;BME280;28421;51.030;4.006;2022-12-07T14:27:32;101709.47;;;8.20;71.06
29417;BME280;28421;51.030;4.006;2022-12-07T14:30:00;101710.50;;;8.29;70.96
29417;BME280;28421;51.030;4.006;2022-12-07T14:32:28;101709.47;;;8.51;70.54
29417;BME280;28421;51.030;4.006;2022-12-07T14:37:26;101726.25;;;8.43;70.49
29417;BME280;28421;51.030;4.006;2022-12-07T14:39:52;101721.22;;;8.29;70.40
29417;BME280;28421;51.030;4.006;2022-12-07T14:42:17;101709.13;;;7.73;71.83
29417;BME280;28421;51.030;4.006;2022-12-07T14:44:44;101718.81;;;7.22;72.42
29417;BME280;28421;51.030;4.006;2022-12-07T14:47:10;101719.91;;;7.41;72.55
29417;BME280;28421;51.030;4.006;2022-12-07T14:49:36;101716.59;;;7.28;72.11
29417;BME280;28421;51.030;4.006;2022-12-07T14:52:01;101715.69;;;7.38;71.92
29417;BME280;28421;51.030;4.006;2022-12-07T14:54:31;101705.44;;;7.43;70.95
29417;BME280;28421;51.030;4.006;2022-12-07T14:56:57;101707.75;;;7.58;71.30
29417;BME280;28421;51.030;4.006;2022-12-07T14:59:22;101692.41;;;7.81;70.69
29417;BME280;28421;51.030;4.006;2022-12-07T15:01:48;101705.41;;;7.64;70.92
29417;BME280;28421;51.030;4.006;2022-12-07T15:04:14;101686.72;;;7.43;71.24
29417;BME280;28421;51.030;4.006;2022-12-07T15:06:39;101683.75;;;7.67;71.12
29417;BME280;28421;51.030;4.006;2022-12-07T15:09:05;101686.94;;;7.61;71.18
29417;BME280;28421;51.030;4.006;2022-12-07T15:11:30;101677.78;;;7.85;70.36
29417;BME280;28421;51.030;4.006;2022-12-07T15:13:56;101678.66;;;7.95;70.10
29417;BME280;28421;51.030;4.006;2022-12-07T15:16:35;101675.75;;;7.77;70.20
29417;BME280;28421;51.030;4.006;2022-12-07T15:19:01;101668.09;;;7.93;69.82
29417;BME280;28421;51.030;4.006;2022-12-07T15:21:26;101674.47;;;8.02;70.15
29417;BME280;28421;51.030;4.006;2022-12-07T15:23:51;101669.63;;;7.96;69.63
29417;BME280;28421;51.030;4.006;2022-12-07T15:26:17;101671.97;;;7.80;70.17
29417;BME280;28421;51.030;4.006;2022-12-07T15:28:42;101665.56;;;7.71;70.13
29417;BME280;28421;51.030;4.006;2022-12-07T15:31:15;101670.16;;;7.80;70.17
29417;BME280;28421;51.030;4.006;2022-12-07T15:33:41;101668.63;;;7.36;70.84
29417;BME280;28421;51.030;4.006;2022-12-07T15:36:07;101669.63;;;7.35;70.94
29417;BME280;28421;51.030;4.006;2022-12-07T15:38:32;101673.84;;;7.16;70.99
29417;BME280;28421;51.030;4.006;2022-12-07T15:40:58;101672.78;;;7.29;71.20
29417;BME280;28421;51.030;4.006;2022-12-07T15:43:23;101668.97;;;7.42;70.95
29417;BME280;28421;51.030;4.006;2022-12-07T15:46:07;101664.97;;;7.37;70.50
29417;BME280;28421;51.030;4.006;2022-12-07T15:48:33;101664.66;;;7.51;70.61
29417;BME280;28421;51.030;4.006;2022-12-07T15:51:06;101667.47;;;6.96;71.59
29417;BME280;28421;51.030;4.006;2022-12-07T15:53:33;101667.53;;;7.17;71.75
29417;BME280;28421;51.030;4.006;2022-12-07T15:55:58;101661.91;;;7.41;70.80
29417;BME280;28421;51.030;4.006;2022-12-07T15:58:24;101664.94;;;7.58;70.55
29417;BME280;28421;51.030;4.006;2022-12-07T16:00:49;101677.16;;;7.71;70.55
29417;BME280;28421;51.030;4.006;2022-12-07T16:03:15;101664.66;;;7.51;70.12
29417;BME280;28421;51.030;4.006;2022-12-07T16:05:40;101663.09;;;7.28;71.16
29417;BME280;28421;51.030;4.006;2022-12-07T16:08:05;101668.50;;;7.37;71.17
29417;BME280;28421;51.030;4.006;2022-12-07T16:10:31;101651.28;;;7.30;71.11
29417;BME280;28421;51.030;4.006;2022-12-07T16:12:56;101660.19;;;6.98;71.90
29417;BME280;28421;51.030;4.006;2022-12-07T16:15:22;101660.66;;;7.25;71.97
29417;BME280;28421;51.030;4.006;2022-12-07T16:17:49;101662.69;;;7.11;71.80
29417;BME280;28421;51.030;4.006;2022-12-07T16:20:15;101669.63;;;7.35;71.68
29417;BME280;28421;51.030;4.006;2022-12-07T16:22:41;101660.59;;;7.15;72.02
29417;BME280;28421;51.030;4.006;2022-12-07T16:25:06;101666.41;;;7.41;71.58
29417;BME280;28421;51.030;4.006;2022-12-07T16:27:32;101667.78;;;7.35;71.32
29417;BME280;28421;51.030;4.006;2022-12-07T16:29:57;101670.53;;;6.92;72.26
29417;BME280;28421;51.030;4.006;2022-12-07T16:32:22;101663.81;;;6.77;73.22
29417;BME280;28421;51.030;4.006;2022-12-07T16:34:48;101661.50;;;7.04;72.41
29417;BME280;28421;51.030;4.006;2022-12-07T16:37:13;101671.03;;;6.97;72.07
29417;BME280;28421;51.030;4.006;2022-12-07T16:39:39;101667.78;;;7.14;71.90
29417;BME280;28421;51.030;4.006;2022-12-07T16:42:04;101650.03;;;7.34;71.30
29417;BME280;28421;51.030;4.006;2022-12-07T16:44:30;101656.47;;;7.53;71.30
29417;BME280;28421;51.030;4.006;2022-12-07T16:46:56;101649.28;;;7.53;70.89
29417;BME280;28421;51.030;4.006;2022-12-07T16:49:21;101662.53;;;6.92;72.36
29417;BME280;28421;51.030;4.006;2022-12-07T16:51:49;101654.06;;;7.08;72.45
29417;BME280;28421;51.030;4.006;2022-12-07T16:54:15;101648.28;;;7.23;71.97
29417;BME280;28421;51.030;4.006;2022-12-07T16:56:41;101642.56;;;7.38;71.33
29417;BME280;28421;51.030;4.006;2022-12-07T16:59:07;101627.84;;;7.43;71.17
29417;BME280;28421;51.030;4.006;2022-12-07T17:01:32;101648.28;;;7.23;71.78
29417;BME280;28421;51.030;4.006;2022-12-07T17:03:59;101647.22;;;7.15;72.31
29417;BME280;28421;51.030;4.006;2022-12-07T17:06:26;101631.03;;;6.95;72.63
29417;BME280;28421;51.030;4.006;2022-12-07T17:08:53;101634.44;;;6.77;73.04
29417;BME280;28421;51.030;4.006;2022-12-07T17:11:21;101636.19;;;6.55;73.72
29417;BME280;28421;51.030;4.006;2022-12-07T17:13:47;101621.13;;;6.54;73.57
29417;BME280;28421;51.030;4.006;2022-12-07T17:16:31;101624.31;;;6.48;73.99
29417;BME280;28421;51.030;4.006;2022-12-07T17:18:57;101620.69;;;6.38;74.77
29417;BME280;28421;51.030;4.006;2022-12-07T17:21:23;101619.16;;;6.88;73.61
29417;BME280;28421;51.030;4.006;2022-12-07T17:23:49;101621.91;;;6.98;72.65
29417;BME280;28421;51.030;4.006;2022-12-07T17:26:21;101619.28;;;6.87;72.84
29417;BME280;28421;51.030;4.006;2022-12-07T17:28:47;101617.69;;;6.63;73.70
29417;BME280;28421;51.030;4.006;2022-12-07T17:31:15;101617.38;;;6.89;72.87
29417;BME280;28421;51.030;4.006;2022-12-07T17:33:40;101616.13;;;6.93;72.31
29417;BME280;28421;51.030;4.006;2022-12-07T17:36:18;101600.78;;;6.74;72.59
29417;BME280;28421;51.030;4.006;2022-12-07T17:38:43;101609.84;;;6.83;72.49
29417;BME280;28421;51.030;4.006;2022-12-07T17:41:15;101602.06;;;6.80;72.70
29417;BME280;28421;51.030;4.006;2022-12-07T17:44:00;101592.97;;;6.82;72.57
29417;BME280;28421;51.030;4.006;2022-12-07T17:46:26;101583.91;;;6.73;72.60
29417;BME280;28421;51.030;4.006;2022-12-07T17:48:53;101597.72;;;7.00;72.37
29417;BME280;28421;51.030;4.006;2022-12-07T17:51:19;101592.72;;;6.85;72.99
29417;BME280;28421;51.030;4.006;2022-12-07T17:54:03;101591.88;;;6.85;73.36
29417;BME280;28421;51.030;4.006;2022-12-07T17:56:28;101591.59;;;6.88;72.84
29417;BME280;28421;51.030;4.006;2022-12-07T17:58:54;101581.88;;;6.87;72.59
29417;BME280;28421;51.030;4.006;2022-12-07T18:01:19;101584.88;;;6.93;72.36
29417;BME280;28421;51.030;4.006;2022-12-07T18:03:44;101586.13;;;6.89;72.58
29417;BME280;28421;51.030;4.006;2022-12-07T18:06:10;101583.56;;;6.88;72.48
29417;BME280;28421;51.030;4.006;2022-12-07T18:08:35;101566.09;;;6.84;72.20
29417;BME280;28421;51.030;4.006;2022-12-07T18:11:04;101575.34;;;7.01;72.28
29417;BME280;28421;51.030;4.006;2022-12-07T18:13:30;101589.00;;;6.44;73.91
29417;BME280;28421;51.030;4.006;2022-12-07T18:16:07;101598.78;;;6.23;75.12
29417;BME280;28421;51.030;4.006;2022-12-07T18:18:34;101596.34;;;6.31;75.11
29417;BME280;28421;51.030;4.006;2022-12-07T18:21:29;101608.06;;;6.51;75.18
29417;BME280;28421;51.030;4.006;2022-12-07T18:23:56;101613.41;;;6.51;75.10
29417;BME280;28421;51.030;4.006;2022-12-07T18:26:24;101601.41;;;6.66;74.78
29417;BME280;28421;51.030;4.006;2022-12-07T18:28:50;101603.06;;;6.14;76.13
29417;BME280;28421;51.030;4.006;2022-12-07T18:31:16;101604.94;;;6.35;75.37
29417;BME280;28421;51.030;4.006;2022-12-07T18:33:42;101609.56;;;6.33;75.79
29417;BME280;28421;51.030;4.006;2022-12-07T18:36:09;101602.38;;;6.33;75.56
29417;BME280;28421;51.030;4.006;2022-12-07T18:38:35;101578.53;;;6.53;75.20
29417;BME280;28421;51.030;4.006;2022-12-07T18:41:01;101588.25;;;6.75;74.72
29417;BME280;28421;51.030;4.006;2022-12-07T18:43:27;101582.47;;;6.69;74.72
29417;BME280;28421;51.030;4.006;2022-12-07T18:45:53;101584.81;;;6.84;74.42
29417;BME280;28421;51.030;4.006;2022-12-07T18:48:19;101583.31;;;6.70;74.45
29417;BME280;28421;51.030;4.006;2022-12-07T18:50:47;101577.56;;;6.75;74.46
29417;BME280;28421;51.030;4.006;2022-12-07T18:53:12;101570.56;;;6.62;74.27
29417;BME280;28421;51.030;4.006;2022-12-07T18:55:38;101568.59;;;6.11;75.50
29417;BME280;28421;51.030;4.006;2022-12-07T18:58:05;101555.72;;;6.16;75.62
29417;BME280;28421;51.030;4.006;2022-12-07T19:00:32;101556.38;;;5.86;76.20
29417;BME280;28421;51.030;4.006;2022-12-07T19:02:59;101564.94;;;6.12;75.13
29417;BME280;28421;51.030;4.006;2022-12-07T19:05:25;101562.63;;;6.19;76.17
29417;BME280;28421;51.030;4.006;2022-12-07T19:07:51;101547.34;;;6.42;75.16
29417;BME280;28421;51.030;4.006;2022-12-07T19:10:18;101554.53;;;6.41;74.56
29417;BME280;28421;51.030;4.006;2022-12-07T19:12:44;101554.72;;;6.50;74.64
29417;BME280;28421;51.030;4.006;2022-12-07T19:15:11;101537.78;;;6.39;74.17
29417;BME280;28421;51.030;4.006;2022-12-07T19:17:38;101552.69;;;6.42;73.89
29417;BME280;28421;51.030;4.006;2022-12-07T19:20:05;101546.53;;;5.76;75.64
29417;BME280;28421;51.030;4.006;2022-12-07T19:22:31;101552.31;;;6.14;75.26
29417;BME280;28421;51.030;4.006;2022-12-07T19:24:57;101536.56;;;5.89;75.40
29417;BME280;28421;51.030;4.006;2022-12-07T19:27:22;101548.22;;;6.10;75.01
29417;BME280;28421;51.030;4.006;2022-12-07T19:29:49;101549.81;;;5.79;75.63
29417;BME280;28421;51.030;4.006;2022-12-07T19:32:16;101538.16;;;6.03;74.75
29417;BME280;28421;51.030;4.006;2022-12-07T19:34:43;101536.69;;;6.10;74.24
29417;BME280;28421;51.030;4.006;2022-12-07T19:37:10;101528.41;;;6.13;74.07
29417;BME280;28421;51.030;4.006;2022-12-07T19:39:37;101527.56;;;6.12;73.82
29417;BME280;28421;51.030;4.006;2022-12-07T19:42:03;101529.91;;;6.06;73.60
29417;BME280;28421;51.030;4.006;2022-12-07T19:44:29;101534.16;;;5.86;74.02
29417;BME280;28421;51.030;4.006;2022-12-07T19:46:59;101531.66;;;5.62;75.11
29417;BME280;28421;51.030;4.006;2022-12-07T19:49:26;101538.06;;;5.82;74.00
29417;BME280;28421;51.030;4.006;2022-12-07T19:51:55;101534.31;;;5.62;74.48
29417;BME280;28421;51.030;4.006;2022-12-07T19:54:24;101533.25;;;5.64;74.48
29417;BME280;28421;51.030;4.006;2022-12-07T19:56:50;101529.13;;;5.60;74.44
29417;BME280;28421;51.030;4.006;2022-12-07T19:59:19;101524.91;;;5.35;74.97
29417;BME280;28421;51.030;4.006;2022-12-07T20:01:45;101517.09;;;5.55;75.08
29417;BME280;28421;51.030;4.006;2022-12-07T20:04:16;101524.63;;;5.38;75.59
29417;BME280;28421;51.030;4.006;2022-12-07T20:06:44;101515.56;;;5.52;74.94
29417;BME280;28421;51.030;4.006;2022-12-07T20:09:10;101511.75;;;5.66;74.39
29417;BME280;28421;51.030;4.006;2022-12-07T20:11:36;101506.78;;;5.72;74.45
29417;BME280;28421;51.030;4.006;2022-12-07T20:14:21;101516.09;;;5.78;74.09
29417;BME280;28421;51.030;4.006;2022-12-07T20:16:46;101527.91;;;5.42;74.98
29417;BME280;28421;51.030;4.006;2022-12-07T20:19:13;101523.19;;;5.57;75.07
29417;BME280;28421;51.030;4.006;2022-12-07T20:21:40;101515.50;;;5.63;75.04
29417;BME280;28421;51.030;4.006;2022-12-07T20:24:09;101511.63;;;5.79;74.62
29417;BME280;28421;51.030;4.006;2022-12-07T20:26:36;101511.28;;;5.61;75.40
29417;BME280;28421;51.030;4.006;2022-12-07T20:29:09;101505.81;;;5.73;74.90